Time;durP1;ratioP1;P1;durP2;ratioP2;P2;SDS_P1;SDS_P2;PMS_P1;PMS_P2;Temp;Humidity;BMP_temperature;BMP_pressure;BME280_temperature;BME280_humidity;BME280_pressure;Samples;Min_cycle;Max_cycle;Signal;HPM_P1;HPM_P2
2022/06/04 00:02:23;;;;;;;4.05;2.67;;;;;;;15.51;63.61;100143.63;1756728;81;20882;-41
2022/06/04 00:04:51;;;;;;;4.97;2.98;;;;;;;15.47;64.06;100139.47;1756692;81;20921;-42
2022/06/04 00:07:18;;;;;;;4.58;2.90;;;;;;;15.46;64.35;100143.35;1737616;81;20961;-42
2022/06/04 00:15:33;;;;;;;3.72;3.30;;;;;;;15.27;63.70;100133.95;1756651;81;20926;-42
2022/06/04 00:18:01;;;;;;;4.00;2.80;;;;;;;15.14;64.22;100138.09;1757198;81;20981;-41
2022/06/04 00:20:29;;;;;;;4.87;3.30;;;;;;;15.04;64.65;100131.33;1757074;81;20957;-42
2022/06/04 00:23:00;;;;;;;3.75;3.00;;;;;;;15.06;64.83;100130.37;1757071;81;20980;-42
2022/06/04 00:25:27;;;;;;;5.62;3.25;;;;;;;15.12;64.71;100126.16;1757353;81;21570;-42
2022/06/04 00:27:58;;;;;;;4.25;3.58;;;;;;;15.18;64.63;100115.13;1756563;81;21037;-42
2022/06/04 00:30:24;;;;;;;4.70;3.50;;;;;;;15.18;64.68;100117.85;1756440;81;21012;-41
2022/06/04 00:32:52;;;;;;;6.90;3.33;;;;;;;15.19;64.47;100111.24;1756475;81;20992;-42
2022/06/04 00:35:19;;;;;;;3.60;3.30;;;;;;;15.19;64.13;100113.18;1756361;81;21084;-41
2022/06/04 00:37:46;;;;;;;7.08;3.90;;;;;;;15.18;63.94;100109.66;1756375;81;21247;-42
2022/06/04 00:40:19;;;;;;;4.85;4.03;;;;;;;15.15;63.81;100110.38;1756282;81;20974;-41
2022/06/04 00:42:46;;;;;;;4.67;3.85;;;;;;;15.13;63.63;100111.92;1756274;81;21021;-41
2022/06/04 00:45:25;;;;;;;4.72;3.67;;;;;;;15.09;63.56;100112.47;1756268;81;20953;-41
2022/06/04 00:47:52;;;;;;;5.28;3.45;;;;;;;15.03;63.55;100110.64;1756370;81;21009;-41
2022/06/04 00:50:21;;;;;;;5.27;3.20;;;;;;;14.96;64.24;100110.53;1756698;81;23133;-41
2022/06/04 00:52:49;;;;;;;7.78;3.12;;;;;;;14.92;64.90;100106.97;1756277;81;21260;-42
2022/06/04 00:55:16;;;;;;;5.47;3.62;;;;;;;14.98;65.22;100103.34;1756527;81;20977;-41
2022/06/04 00:58:17;;;;;;;4.95;3.60;;;;;;;15.03;64.99;100100.29;1756109;81;20929;-41
2022/06/04 01:00:55;;;;;;;4.05;3.65;;;;;;;15.01;64.67;100099.28;1756305;81;21008;-41
2022/06/04 01:03:49;;;;;;;4.53;4.10;;;;;;;14.99;64.31;100102.20;1756415;81;21258;-42
2022/06/04 01:06:31;;;;;;;4.55;3.70;;;;;;;15.00;64.06;100104.56;1756168;81;20968;-41
2022/06/04 01:09:38;;;;;;;6.37;4.00;;;;;;;14.99;64.15;100097.52;1754333;81;20922;-41
2022/06/04 01:12:20;;;;;;;4.80;4.20;;;;;;;14.99;64.20;100104.34;1720292;83;21076;-41
2022/06/04 01:15:13;;;;;;;4.97;4.00;;;;;;;14.96;64.32;100107.80;1702672;84;21642;-41
2022/06/04 01:18:14;;;;;;;5.70;4.22;;;;;;;14.93;64.44;100102.30;1695407;84;21605;-41
2022/06/04 01:20:51;;;;;;;;;;;;;;;14.88;64.79;100103.41;1696376;84;21050;-41
2022/06/04 01:23:52;;;;;;;4.72;3.27;;;;;;;14.87;65.02;100103.20;1694024;84;20197;-42
2022/06/04 01:27:00;;;;;;;5.60;3.50;;;;;;;14.86;65.09;100104.95;1665486;84;21061;-41
2022/06/04 01:29:56;;;;;;;7.40;4.75;;;;;;;14.85;65.02;100109.62;1684452;84;21006;-41
2022/06/04 01:32:50;;;;;;;10.30;4.70;;;;;;;14.78;64.89;100108.94;1693902;84;21153;-41
2022/06/04 01:35:26;;;;;;;5.67;4.62;;;;;;;14.78;64.57;100109.52;1693838;84;20990;-41
2022/06/04 01:38:13;;;;;;;7.85;5.00;;;;;;;14.78;64.34;100102.69;1706878;84;21505;-42
2022/06/04 01:41:07;;;;;;;7.83;5.97;;;;;;;14.77;64.35;100098.37;1707050;84;20950;-41
2022/06/04 01:43:50;;;;;;;7.83;5.50;;;;;;;14.75;64.56;100094.67;1706952;83;20942;-41
2022/06/04 01:46:37;;;;;;;9.35;5.50;;;;;;;14.74;64.69;100089.58;1706917;83;21146;-42
2022/06/04 01:49:21;;;;;;;7.37;4.95;;;;;;;14.74;64.54;100082.17;1706952;84;21627;-41
2022/06/04 01:51:49;;;;;;;9.63;6.20;;;;;;;14.77;64.46;100069.14;1669257;84;21358;-41
2022/06/04 01:54:29;;;;;;;10.48;6.40;;;;;;;14.79;64.44;100078.34;1707191;83;21706;-42
2022/06/04 01:57:01;;;;;;;9.38;6.37;;;;;;;14.80;64.50;100088.11;1707033;83;21029;-41
2022/06/04 01:59:35;;;;;;;8.10;6.90;;;;;;;14.82;64.61;100094.54;1706793;84;21798;-41
2022/06/04 02:02:04;;;;;;;8.05;6.42;;;;;;;14.84;64.57;100091.66;1705936;84;21350;-41
2022/06/04 02:04:38;;;;;;;7.50;6.50;;;;;;;14.86;64.60;100089.94;1707392;83;20938;-42
2022/06/04 02:09:56;;;;;;;7.97;6.33;;;;;;;14.85;64.93;100087.00;1706997;84;21112;-41
2022/06/04 02:12:23;;;;;;;8.90;6.65;;;;;;;14.90;65.01;100087.46;1707340;84;21081;-42
2022/06/04 02:14:50;;;;;;;7.78;6.90;;;;;;;14.98;65.01;100087.75;1706721;83;20982;-41
2022/06/04 02:17:22;;;;;;;9.80;7.50;;;;;;;15.05;65.13;100091.16;1709889;83;21036;-41
2022/06/04 02:19:48;;;;;;;7.97;7.03;;;;;;;15.09;64.99;100092.77;1712837;83;20993;-41
2022/06/04 02:22:16;;;;;;;9.58;7.40;;;;;;;15.14;65.09;100095.18;1712403;83;21005;-42
2022/06/04 02:24:45;;;;;;;9.13;7.47;;;;;;;15.20;65.23;100106.56;1712500;83;21204;-41
2022/06/04 02:27:12;;;;;;;10.13;7.85;;;;;;;15.25;65.27;100101.35;1712476;83;20969;-41
2022/06/04 02:29:39;;;;;;;8.30;7.30;;;;;;;15.27;65.43;100101.17;1712559;83;20982;-42
2022/06/04 02:32:22;;;;;;;7.05;6.35;;;;;;;15.32;65.44;100105.52;1712419;83;21310;-41
2022/06/04 02:35:05;;;;;;;9.00;6.72;;;;;;;15.38;65.38;100109.50;1712531;83;21039;-42
2022/06/04 02:38:15;;;;;;;7.80;7.00;;;;;;;15.48;65.04;100107.47;1712852;83;21587;-42
2022/06/04 02:40:53;;;;;;;8.00;6.85;;;;;;;15.55;64.81;100106.98;1712519;83;21559;-42
2022/06/04 02:43:29;;;;;;;9.40;7.47;;;;;;;15.61;64.48;100118.37;1712692;83;21049;-41
2022/06/04 02:46:17;;;;;;;8.98;7.65;;;;;;;15.67;64.20;100117.45;1711957;83;21089;-41
2022/06/04 02:48:58;;;;;;;8.15;7.17;;;;;;;15.70;64.42;100108.49;1704337;83;21523;-41
2022/06/04 02:51:25;;;;;;;8.58;7.72;;;;;;;15.74;64.36;100114.78;1711453;83;23142;-42
2022/06/04 02:53:52;;;;;;;9.05;7.55;;;;;;;15.77;64.22;100118.14;1712571;83;20981;-42
2022/06/04 02:56:24;;;;;;;7.85;7.10;;;;;;;15.80;64.02;100119.54;1712299;83;21352;-41
2022/06/04 02:58:56;;;;;;;7.47;5.85;;;;;;;15.84;64.55;100118.98;1707778;83;21008;-41
2022/06/04 03:01:23;;;;;;;6.78;5.62;;;;;;;15.86;64.91;100118.63;1700219;84;21065;-42
2022/06/04 03:03:51;;;;;;;6.87;6.17;;;;;;;15.96;64.96;100117.36;1699964;84;21059;-42
2022/06/04 03:06:27;;;;;;;7.22;6.08;;;;;;;16.06;65.07;100118.04;1699835;84;21106;-42
2022/06/04 03:08:54;;;;;;;10.23;6.17;;;;;;;16.15;65.59;100125.13;1700002;84;21542;-42
2022/06/04 03:11:22;;;;;;;7.45;5.85;;;;;;;16.23;65.64;100119.91;1700091;84;21072;-42
2022/06/04 03:13:51;;;;;;;8.48;6.00;;;;;;;16.31;65.26;100117.45;1700030;84;21016;-42
2022/06/04 03:16:18;;;;;;;8.10;5.97;;;;;;;16.38;65.15;100122.97;1700041;84;21092;-42
2022/06/04 03:18:46;;;;;;;6.72;5.92;;;;;;;16.44;64.82;100120.09;1694493;84;21009;-42
2022/06/04 03:21:14;;;;;;;8.13;5.72;;;;;;;16.46;64.03;100113.64;1694637;84;21000;-42
2022/06/04 03:23:42;;;;;;;8.40;5.47;;;;;;;16.50;63.75;100109.00;1694615;84;21843;-42
2022/06/04 03:26:09;;;;;;;6.00;5.00;;;;;;;16.52;63.37;100110.75;1694777;84;20997;-42
2022/06/04 03:28:36;;;;;;;5.78;4.67;;;;;;;16.59;63.36;100109.48;1694645;84;21266;-42
2022/06/04 03:31:03;;;;;;;9.30;5.20;;;;;;;16.68;63.54;100107.19;1694483;84;21043;-42
2022/06/04 03:33:31;;;;;;;5.45;4.95;;;;;;;16.75;63.28;100105.84;1694448;84;20996;-42
2022/06/04 03:35:58;;;;;;;8.90;5.03;;;;;;;16.75;63.25;100112.69;1694327;84;21088;-42
2022/06/04 03:38:25;;;;;;;8.60;4.87;;;;;;;16.79;63.04;100106.67;1694437;84;21595;-42
2022/06/04 03:40:53;;;;;;;6.83;5.28;;;;;;;16.84;63.29;100114.52;1694359;84;21225;-42
2022/06/04 03:43:21;;;;;;;7.45;5.00;;;;;;;16.89;63.09;100119.61;1694465;84;21591;-42
2022/06/04 03:45:48;;;;;;;5.33;4.75;;;;;;;16.92;62.83;100115.33;1694444;84;21072;-42
2022/06/04 03:48:15;;;;;;;5.65;5.15;;;;;;;16.95;62.74;100118.08;1694565;84;21523;-42
2022/06/04 03:50:42;;;;;;;7.40;5.03;;;;;;;16.97;63.19;100119.66;1694665;84;21113;-42
2022/06/04 03:53:09;;;;;;;5.55;4.85;;;;;;;16.99;63.58;100125.55;1694526;84;21204;-42
2022/06/04 03:55:37;;;;;;;7.17;4.58;;;;;;;17.05;63.18;100122.05;1694534;84;21087;-42
2022/06/04 03:58:05;;;;;;;6.45;4.90;;;;;;;17.13;62.24;100122.88;1694344;83;20961;-42
2022/06/04 04:00:38;;;;;;;5.62;4.33;;;;;;;17.22;62.11;100120.56;1694512;84;21003;-42
2022/06/04 04:03:12;;;;;;;4.83;4.30;;;;;;;17.30;61.88;100120.78;1694600;84;21073;-42
2022/06/04 04:05:45;;;;;;;9.68;4.20;;;;;;;17.36;60.32;100121.41;1694548;84;23152;-42
2022/06/04 04:08:13;;;;;;;7.33;4.00;;;;;;;17.38;59.62;100123.74;1693371;84;21040;-42
2022/06/04 04:10:42;;;;;;;5.15;4.00;;;;;;;17.39;59.90;100128.06;1694767;84;20950;-42
2022/06/04 04:13:10;;;;;;;4.50;3.70;;;;;;;17.42;59.71;100123.78;1694563;84;21065;-42
2022/06/04 04:15:38;;;;;;;5.75;3.55;;;;;;;17.47;60.05;100124.77;1694898;84;21626;-42
2022/06/04 04:18:06;;;;;;;4.83;3.90;;;;;;;17.52;59.58;100126.56;1694567;83;23168;-42
2022/06/04 04:20:36;;;;;;;5.17;3.90;;;;;;;17.55;59.05;100132.63;1694724;84;21069;-42
2022/06/04 04:23:05;;;;;;;5.35;4.00;;;;;;;17.57;59.09;100123.41;1695308;84;21053;-42
2022/06/04 04:25:33;;;;;;;5.50;4.35;;;;;;;17.59;58.50;100127.17;1694902;84;21056;-42
2022/06/04 04:28:01;;;;;;;6.08;4.37;;;;;;;17.59;58.78;100127.17;1694495;84;21548;-42
2022/06/04 04:30:30;;;;;;;5.25;4.20;;;;;;;17.59;59.24;100130.70;1694783;84;21192;-42
2022/06/04 04:32:58;;;;;;;4.65;4.25;;;;;;;17.58;59.26;100130.47;1694922;84;21110;-42
2022/06/04 04:35:27;;;;;;;4.42;4.00;;;;;;;17.58;59.60;100133.21;1694900;84;21093;-42
2022/06/04 04:37:54;;;;;;;5.15;4.33;;;;;;;17.54;60.26;100125.56;1694859;84;21108;-42
2022/06/04 04:40:26;;;;;;;4.17;3.77;;;;;;;17.55;60.96;100127.14;1694761;84;21057;-42
2022/06/04 04:42:55;;;;;;;4.65;4.17;;;;;;;17.60;60.80;100122.69;1694960;84;21779;-42
2022/06/04 04:45:23;;;;;;;4.95;3.77;;;;;;;17.66;60.36;100118.98;1694738;84;21036;-42
2022/06/04 04:47:52;;;;;;;6.95;4.08;;;;;;;17.68;60.42;100125.63;1695168;84;21032;-42
2022/06/04 04:50:34;;;;;;;4.40;3.92;;;;;;;17.70;60.55;100119.77;1694709;84;21729;-42
2022/06/04 04:53:04;;;;;;;4.67;3.83;;;;;;;17.72;60.73;100123.67;1694647;84;21045;-42
2022/06/04 04:55:32;;;;;;;5.05;3.90;;;;;;;17.74;61.06;100119.97;1695264;84;21694;-42
2022/06/04 04:58:00;;;;;;;3.75;3.33;;;;;;;17.76;61.75;100119.59;1694622;84;21022;-42
2022/06/04 05:00:28;;;;;;;4.25;3.70;;;;;;;17.76;61.31;100117.64;1695075;84;20997;-42
2022/06/04 05:02:57;;;;;;;5.08;3.40;;;;;;;17.78;60.77;100119.97;1694550;84;21562;-42
2022/06/04 05:05:24;;;;;;;3.90;3.05;;;;;;;17.80;60.69;100123.12;1694831;84;21049;-42
2022/06/04 05:07:52;;;;;;;4.95;3.17;;;;;;;17.84;59.95;100121.16;1694770;84;21132;-42
2022/06/04 05:10:19;;;;;;;7.25;3.87;;;;;;;17.86;59.76;100122.16;1694623;84;21044;-42
2022/06/04 05:12:46;;;;;;;5.95;3.52;;;;;;;17.88;60.08;100121.16;1694857;84;21069;-42
2022/06/04 05:15:14;;;;;;;4.08;3.67;;;;;;;17.92;59.91;100124.10;1665023;84;21120;-42
2022/06/04 05:17:41;;;;;;;5.50;3.40;;;;;;;17.98;60.06;100115.69;1700571;83;21074;-42
2022/06/04 05:20:10;;;;;;;4.20;3.50;;;;;;;18.07;59.52;100127.06;1715718;83;21141;-42
2022/06/04 05:22:37;;;;;;;4.10;3.00;;;;;;;18.17;59.55;100122.75;1720493;83;20956;-42
2022/06/04 05:25:06;;;;;;;4.65;2.67;;;;;;;18.27;58.38;100123.34;1720236;83;21039;-42
2022/06/04 05:27:33;;;;;;;2.52;2.15;;;;;;;18.37;58.63;100118.44;1691587;84;21055;-42
2022/06/04 05:30:03;;;;;;;2.42;2.12;;;;;;;18.51;58.01;100123.13;1691317;84;20968;-42
2022/06/04 05:32:30;;;;;;;3.90;1.87;;;;;;;18.63;55.51;100120.81;1691365;84;21275;-42
2022/06/04 05:34:57;;;;;;;3.25;1.80;;;;;;;18.76;54.54;100117.63;1691432;84;21258;-42
2022/06/04 05:37:24;;;;;;;5.65;1.82;;;;;;;18.87;54.09;100121.15;1691340;84;20990;-42
2022/06/04 05:39:51;;;;;;;1.70;1.60;;;;;;;18.97;53.48;100121.70;1691417;84;21036;-42
2022/06/04 05:42:18;;;;;;;2.02;1.82;;;;;;;19.08;51.84;100121.84;1691354;84;21051;-42
2022/06/04 05:44:45;;;;;;;2.85;1.67;;;;;;;19.17;52.32;100124.17;1691208;84;23113;-42
2022/06/04 05:47:12;;;;;;;2.85;1.60;;;;;;;19.27;51.86;100117.06;1691238;84;21007;-42
2022/06/04 05:49:40;;;;;;;2.77;1.60;;;;;;;19.32;50.67;100117.43;1691446;84;21059;-42
2022/06/04 05:52:07;;;;;;;2.08;1.52;;;;;;;19.42;50.95;100113.85;1691156;84;21008;-42
2022/06/04 05:54:34;;;;;;;3.42;2.00;;;;;;;19.50;49.93;100115.43;1706204;83;21080;-42
2022/06/04 05:57:03;;;;;;;5.00;1.80;;;;;;;19.57;49.48;100111.84;1691180;84;21170;-42
2022/06/04 05:59:30;;;;;;;1.90;1.80;;;;;;;19.63;50.33;100113.58;1720171;83;21059;-42
2022/06/04 06:01:57;;;;;;;3.20;1.70;;;;;;;19.70;50.88;100113.55;1691225;84;21055;-42
2022/06/04 06:04:26;;;;;;;1.90;1.70;;;;;;;19.81;51.04;100105.98;1720215;83;21023;-43
2022/06/04 06:06:53;;;;;;;2.67;1.90;;;;;;;19.91;51.04;100105.92;1691302;84;21495;-43
2022/06/04 06:09:23;;;;;;;2.12;1.82;;;;;;;20.04;50.95;100108.99;1720120;83;21239;-42
2022/06/04 06:11:50;;;;;;;3.12;1.85;;;;;;;20.16;49.34;100104.95;1691223;84;21035;-42
2022/06/04 06:14:17;;;;;;;2.02;1.82;;;;;;;20.26;49.46;100103.48;1720121;83;20964;-42
2022/06/04 06:16:47;;;;;;;2.47;1.80;;;;;;;20.38;49.68;100107.76;1691346;84;21638;-42
2022/06/04 06:19:15;;;;;;;1.82;1.50;;;;;;;20.56;47.74;100095.19;1704435;83;21069;-42
2022/06/04 06:21:43;;;;;;;1.80;1.70;;;;;;;20.56;47.74;100095.19;1694904;84;21858;-42
2022/06/04 06:24:11;;;;;;;1.77;1.60;;;;;;;20.32;48.13;100055.68;1694601;84;21065;-42
2022/06/04 06:26:45;;;;;;;1.75;1.62;;;;;;;20.64;47.57;100092.53;1694569;84;21008;-42
2022/06/04 06:29:12;;;;;;;2.27;1.67;;;;;;;20.72;47.85;100085.77;1694834;84;20961;-43
2022/06/04 06:31:40;;;;;;;3.62;1.82;;;;;;;20.82;47.87;100084.25;1694820;84;21037;-42
2022/06/04 06:34:07;;;;;;;2.15;1.77;;;;;;;20.93;46.63;100088.27;1694640;84;21272;-42
2022/06/04 06:36:34;;;;;;;3.37;1.57;;;;;;;21.04;47.05;100086.18;1694721;84;21033;-42
2022/06/04 06:39:01;;;;;;;2.42;1.50;;;;;;;21.13;46.23;100089.81;1694572;84;21061;-42
2022/06/04 06:41:28;;;;;;;2.65;1.50;;;;;;;21.16;46.41;100088.41;1694732;84;21118;-42
2022/06/04 06:43:56;;;;;;;2.37;1.72;;;;;;;21.24;45.42;100079.47;1694552;84;21100;-43
2022/06/04 06:46:31;;;;;;;3.60;1.70;;;;;;;21.29;45.61;100080.39;1694454;84;21140;-42
2022/06/04 06:49:07;;;;;;;3.17;1.70;;;;;;;21.38;45.35;100079.28;1694382;84;21009;-42
2022/06/04 06:51:38;;;;;;;1.67;1.45;;;;;;;21.48;45.34;100072.05;1693717;84;21552;-42
2022/06/04 06:54:06;;;;;;;2.58;1.60;;;;;;;21.58;44.14;100063.63;1694453;84;21061;-43
2022/06/04 06:56:37;;;;;;;4.03;1.90;;;;;;;21.63;44.25;100056.85;1694460;84;21318;-42
2022/06/04 06:59:04;;;;;;;2.83;1.90;;;;;;;21.66;45.09;100057.39;1694391;84;21127;-42
2022/06/04 07:01:31;;;;;;;2.30;1.65;;;;;;;21.71;44.58;100052.78;1694400;84;21053;-42
2022/06/04 07:03:58;;;;;;;1.82;1.57;;;;;;;21.79;44.65;100049.30;1694581;84;20996;-43
2022/06/04 07:06:35;;;;;;;2.02;1.70;;;;;;;21.88;44.41;100048.94;1694489;84;21060;-42
2022/06/04 07:09:05;;;;;;;2.77;1.52;;;;;;;21.98;43.95;100045.86;1694533;84;21064;-43
2022/06/04 07:11:32;;;;;;;3.17;1.80;;;;;;;22.01;43.28;100044.44;1694850;84;21857;-43
2022/06/04 07:14:00;;;;;;;2.30;1.62;;;;;;;22.03;43.65;100037.88;1694500;84;21133;-42
2022/06/04 07:16:29;;;;;;;3.08;1.52;;;;;;;22.15;43.78;100040.65;1694844;84;21005;-43
2022/06/04 07:18:56;;;;;;;2.55;1.50;;;;;;;22.25;44.20;100035.55;1705105;83;21542;-42
2022/06/04 07:21:24;;;;;;;1.87;1.70;;;;;;;22.39;43.68;100030.35;1715410;83;21079;-42
2022/06/04 07:23:51;;;;;;;3.08;1.90;;;;;;;22.52;43.23;100027.14;1715606;83;21144;-42
2022/06/04 07:26:20;;;;;;;1.92;1.75;;;;;;;22.68;42.87;100031.97;1715447;83;21006;-42
2022/06/04 07:28:47;;;;;;;2.05;1.55;;;;;;;22.76;42.50;100028.66;1715703;83;20987;-42
2022/06/04 07:31:15;;;;;;;1.85;1.75;;;;;;;22.89;42.74;100024.07;1715651;83;21006;-43
2022/06/04 07:33:45;;;;;;;1.37;1.27;;;;;;;23.03;41.60;100016.67;1715806;83;21122;-43
2022/06/04 07:36:25;;;;;;;2.22;1.40;;;;;;;23.09;40.79;100016.36;1715354;83;23267;-42
2022/06/04 07:38:53;;;;;;;1.85;1.55;;;;;;;23.09;41.13;100023.27;1715811;83;20971;-42
2022/06/04 07:41:25;;;;;;;2.37;1.40;;;;;;;23.05;40.52;100019.17;1715773;83;21105;-42
2022/06/04 07:43:52;;;;;;;1.52;1.20;;;;;;;22.99;41.20;100015.98;1715627;83;20951;-42
2022/06/04 07:46:19;;;;;;;3.42;1.17;;;;;;;22.91;41.14;100020.27;1715543;83;21130;-42
2022/06/04 07:48:46;;;;;;;1.40;1.30;;;;;;;22.87;40.14;100016.02;1720416;83;21137;-42
2022/06/04 07:51:16;;;;;;;1.47;1.30;;;;;;;22.81;39.29;100014.95;1691381;84;21566;-43
2022/06/04 07:53:44;;;;;;;1.75;1.32;;;;;;;22.76;38.54;100010.70;1720298;83;20992;-42
2022/06/04 07:56:17;;;;;;;1.70;1.37;;;;;;;22.76;38.68;100006.55;1691472;84;21103;-42
2022/06/04 07:58:44;;;;;;;1.82;1.17;;;;;;;22.82;39.05;100006.83;1720363;83;21075;-42
2022/06/04 08:01:15;;;;;;;1.82;1.30;;;;;;;22.88;40.00;100006.52;1691190;84;23151;-42
2022/06/04 08:03:42;;;;;;;;;;;;;;;22.92;38.73;100001.09;1722857;83;21069;-42
2022/06/04 08:06:10;;;;;;;2.02;1.35;;;;;;;22.91;38.19;99992.61;1691735;84;20210;-42
2022/06/04 08:08:40;;;;;;;1.52;1.30;;;;;;;22.80;38.51;99996.82;1720326;83;21724;-42
2022/06/04 08:13:52;;;;;;;3.00;1.37;;;;;;;22.83;38.49;99994.58;1720280;83;21189;-42
2022/06/04 08:16:20;;;;;;;1.50;1.40;;;;;;;22.86;39.05;99993.71;1691263;84;21505;-42
2022/06/04 08:18:47;;;;;;;1.82;1.30;;;;;;;22.94;38.71;99997.91;1714205;83;20997;-42
2022/06/04 08:21:15;;;;;;;2.77;1.50;;;;;;;23.02;38.75;99991.61;1694868;84;21005;-42
2022/06/04 08:23:44;;;;;;;3.08;1.82;;;;;;;23.12;39.43;99990.59;1694943;84;21524;-42
2022/06/04 08:26:12;;;;;;;1.80;1.32;;;;;;;23.27;39.39;99998.16;1694735;84;21136;-42
2022/06/04 08:28:40;;;;;;;1.40;1.20;;;;;;;23.42;38.52;99991.69;1694651;84;21044;-43
2022/06/04 08:31:11;;;;;;;2.15;1.60;;;;;;;23.58;38.51;99990.33;1694956;84;21552;-43
2022/06/04 08:33:39;;;;;;;1.65;1.52;;;;;;;23.79;37.82;99980.13;1694956;84;21543;-43
2022/06/04 08:36:08;;;;;;;1.95;1.20;;;;;;;24.07;37.52;99979.20;1694843;84;21075;-42
2022/06/04 08:38:37;;;;;;;1.20;1.10;;;;;;;24.34;37.09;99983.09;1694749;84;20965;-42
2022/06/04 08:41:08;;;;;;;2.15;1.10;;;;;;;24.51;37.23;99980.41;1694839;84;21559;-43
2022/06/04 08:43:57;;;;;;;3.12;1.37;;;;;;;24.66;36.46;99980.19;1694703;84;21084;-43
2022/06/04 08:46:52;;;;;;;1.87;1.47;;;;;;;24.79;35.81;99971.28;1694702;84;21566;-43
2022/06/04 08:49:29;;;;;;;1.37;1.17;;;;;;;24.89;35.11;99969.44;1694560;84;20996;-42
2022/06/04 08:52:03;;;;;;;1.87;1.15;;;;;;;25.01;35.09;99970.08;1694547;84;21135;-42
2022/06/04 08:57:32;;;;;;;1.30;1.20;;;;;;;25.29;34.54;99969.19;1694338;84;21578;-42
2022/06/04 09:00:20;;;;;;;1.60;1.50;;;;;;;25.31;34.55;99974.30;1694584;84;21068;-42
2022/06/04 09:03:13;;;;;;;1.92;1.55;;;;;;;25.15;33.63;99971.02;1694554;84;21072;-43
2022/06/04 09:06:16;;;;;;;1.72;1.57;;;;;;;25.01;34.81;99963.14;1685384;84;21536;-43
2022/06/04 09:09:10;;;;;;;2.92;1.32;;;;;;;24.90;35.32;99966.23;1694564;84;21036;-42
2022/06/04 09:11:59;;;;;;;2.30;1.50;;;;;;;24.76;35.57;99949.98;1702920;84;21545;-43
2022/06/04 09:14:42;;;;;;;1.33;1.20;;;;;;;24.69;35.73;99953.73;1707071;84;21021;-43
2022/06/04 09:17:16;;;;;;;1.62;1.40;;;;;;;24.67;35.47;99943.71;1706134;84;21070;-43
2022/06/04 09:19:50;;;;;;;1.30;1.20;;;;;;;24.80;35.56;99945.71;1706090;84;21216;-43
2022/06/04 09:22:34;;;;;;;2.55;1.50;;;;;;;24.99;34.24;99947.53;1702240;84;21025;-43
2022/06/04 09:25:01;;;;;;;1.37;1.20;;;;;;;25.10;33.73;99946.61;1707088;84;20994;-43
2022/06/04 09:27:42;;;;;;;2.05;1.20;;;;;;;25.17;34.61;99944.23;1706851;84;21611;-43
2022/06/04 09:30:27;;;;;;;1.77;1.57;;;;;;;25.31;34.46;99945.16;1707055;84;21105;-43
2022/06/04 09:33:03;;;;;;;1.30;1.20;;;;;;;25.54;33.88;99942.02;1706837;84;24556;-43
2022/06/04 09:35:37;;;;;;;3.37;1.50;;;;;;;25.73;33.69;99944.39;1707103;84;21525;-43
2022/06/04 09:38:05;;;;;;;4.12;1.60;;;;;;;25.96;33.61;99939.82;1706959;83;21021;-42
2022/06/04 09:40:34;;;;;;;2.25;1.50;;;;;;;26.15;33.03;99933.19;1707508;84;21069;-43
2022/06/04 09:43:09;;;;;;;1.95;1.50;;;;;;;26.22;32.75;99933.59;1707401;84;21619;-43
2022/06/04 09:45:36;;;;;;;1.55;1.30;;;;;;;26.15;32.32;99932.41;1707320;84;21216;-43
2022/06/04 09:48:14;;;;;;;1.72;1.15;;;;;;;26.09;31.89;99940.57;1707060;84;21006;-43
2022/06/04 09:50:42;;;;;;;1.40;1.30;;;;;;;26.02;31.56;99931.08;1706743;84;21551;-43
2022/06/04 09:53:34;;;;;;;2.77;1.40;;;;;;;25.96;32.43;99925.32;1706745;84;20981;-43
2022/06/04 09:56:10;;;;;;;1.67;1.30;;;;;;;25.96;31.64;99921.77;1627090;86;21076;-43
2022/06/04 09:58:42;;;;;;;1.67;1.47;;;;;;;25.79;32.22;99919.00;1631369;87;21130;-43
2022/06/04 10:01:21;;;;;;;4.00;1.40;;;;;;;25.77;32.08;99919.44;1668990;84;21208;-43
2022/06/04 10:04:03;;;;;;;1.72;1.47;;;;;;;25.79;33.03;99921.78;1707127;84;20969;-42
2022/06/04 10:06:30;;;;;;;3.62;1.60;;;;;;;25.79;33.33;99917.61;1705459;84;21570;-43
2022/06/04 10:11:56;;;;;;;2.22;1.60;;;;;;;26.11;33.06;99915.09;1702214;84;21144;-43
2022/06/04 10:14:31;;;;;;;2.50;1.70;;;;;;;26.28;33.46;99916.50;1706769;84;21037;-43
2022/06/04 10:17:00;;;;;;;2.12;1.50;;;;;;;26.27;33.45;99909.37;1707259;84;21110;-43
2022/06/04 10:19:30;;;;;;;2.80;1.70;;;;;;;26.22;33.60;99909.34;1708656;83;21018;-42
2022/06/04 10:22:13;;;;;;;1.50;1.40;;;;;;;26.24;33.86;99904.70;1712475;83;21092;-43
2022/06/04 10:24:57;;;;;;;2.67;1.62;;;;;;;26.24;32.92;99906.09;1709997;83;21922;-43
2022/06/04 10:27:46;;;;;;;1.52;1.42;;;;;;;26.29;32.60;99900.73;1712336;83;21507;-43
2022/06/04 10:30:18;;;;;;;3.52;1.40;;;;;;;26.46;32.15;99906.10;1712489;83;21057;-43
2022/06/04 10:33:40;;;;;;;2.30;1.40;;;;;;;26.62;31.55;99899.72;1712550;83;21036;-43
2022/06/04 10:36:34;;;;;;;1.40;1.30;;;;;;;26.75;30.65;99892.05;1644210;86;21127;-43
2022/06/04 10:39:38;;;;;;;1.80;1.40;;;;;;;26.89;31.66;99893.53;1626733;87;21211;-43
2022/06/04 10:42:16;;;;;;;2.83;1.50;;;;;;;27.12;31.16;99899.95;1706215;83;21026;-43
2022/06/04 10:44:52;;;;;;;1.98;1.50;;;;;;;27.20;30.12;99896.27;1750998;81;21115;-42
2022/06/04 10:47:34;;;;;;;2.30;1.42;;;;;;;27.29;30.79;99890.73;1714817;83;20969;-43
2022/06/04 10:50:18;;;;;;;4.25;1.50;;;;;;;27.46;31.19;99885.64;1714809;83;21032;-43
2022/06/04 10:52:52;;;;;;;3.20;1.50;;;;;;;27.50;29.75;99880.72;1715063;83;21141;-43
2022/06/04 10:55:49;;;;;;;1.30;1.20;;;;;;;27.52;31.47;99887.39;1715197;83;21381;-43
2022/06/04 10:58:39;;;;;;;2.83;1.30;;;;;;;27.62;30.19;99883.39;1714520;83;21024;-43
2022/06/04 11:01:11;;;;;;;2.00;1.67;;;;;;;27.84;31.31;99884.63;1714997;83;21024;-43
2022/06/04 11:03:44;;;;;;;3.72;1.40;;;;;;;28.23;30.07;99875.17;1751195;82;21000;-43
2022/06/04 11:06:26;;;;;;;2.22;1.30;;;;;;;28.62;29.79;99871.36;1714986;83;21338;-43
2022/06/04 11:09:16;;;;;;;2.65;1.40;;;;;;;28.93;29.38;99869.10;1711971;83;21499;-43
2022/06/04 11:12:00;;;;;;;3.45;1.42;;;;;;;29.22;29.30;99869.10;1714997;83;21008;-43
2022/06/04 11:14:45;;;;;;;1.75;1.40;;;;;;;29.45;28.71;99875.96;1750983;81;20950;-43
2022/06/04 11:17:25;;;;;;;1.70;1.37;;;;;;;29.47;28.01;99865.09;1714829;83;21024;-43
2022/06/04 11:20:01;;;;;;;2.35;1.30;;;;;;;29.40;28.76;99858.45;1752498;81;21096;-43
2022/06/04 11:22:40;;;;;;;2.72;1.80;;;;;;;29.44;28.70;99858.42;1720202;83;21064;-43
2022/06/04 11:25:27;;;;;;;1.42;1.27;;;;;;;29.58;28.02;99856.30;1720440;83;21024;-43
2022/06/04 11:28:01;;;;;;;2.85;1.25;;;;;;;29.80;27.77;99848.37;1720211;83;21019;-43
2022/06/04 11:30:43;;;;;;;2.02;1.40;;;;;;;29.98;28.35;99843.27;1720237;83;21586;-43
2022/06/04 11:35:18;;;;;;;1.40;1.30;;;;;;;30.38;27.96;99835.71;1778473;79;22610;-43
2022/06/04 11:38:05;;;;;;;2.12;1.30;;;;;;;30.50;27.33;99837.45;1738740;82;21054;-43
2022/06/04 11:41:19;;;;;;;3.62;1.37;;;;;;;30.81;26.39;99834.13;1738682;82;21030;-43
2022/06/04 11:43:58;;;;;;;2.02;1.50;;;;;;;31.13;26.24;99832.30;1738550;82;21532;-43
2022/06/04 11:46:52;;;;;;;1.70;1.60;;;;;;;31.54;25.51;99828.88;1738586;82;20997;-43
2022/06/04 11:49:27;;;;;;;2.65;1.50;;;;;;;31.59;25.53;99826.03;1738524;82;20951;-44
2022/06/04 11:52:06;;;;;;;2.15;1.50;;;;;;;31.48;24.66;99824.61;1738933;82;21034;-43
2022/06/04 11:55:20;;;;;;;3.90;1.57;;;;;;;31.40;25.30;99824.13;1738523;82;23148;-44
2022/06/04 11:58:06;;;;;;;1.80;1.30;;;;;;;31.16;24.89;99827.14;1738569;82;20978;-43
2022/06/04 12:00:40;;;;;;;3.58;1.65;;;;;;;30.78;26.17;99835.11;1738679;82;20947;-43
2022/06/04 12:03:28;;;;;;;1.67;1.45;;;;;;;30.81;26.08;99836.15;1738568;82;21350;-44
2022/06/04 12:06:19;;;;;;;4.78;1.67;;;;;;;30.89;25.26;99831.67;1738819;82;21527;-44
2022/06/04 12:09:19;;;;;;;1.85;1.30;;;;;;;31.01;25.15;99813.79;1738750;82;21285;-43
2022/06/04 12:11:54;;;;;;;1.75;1.60;;;;;;;31.03;25.10;99816.26;1738699;82;21042;-44
2022/06/04 12:14:47;;;;;;;1.75;1.30;;;;;;;31.26;24.99;99808.16;1738818;82;21461;-44
2022/06/04 12:17:30;;;;;;;3.08;1.50;;;;;;;31.42;24.81;99803.37;1738124;82;21568;-44
2022/06/04 12:26:32;;;;;;;2.67;1.47;;;;;;;31.06;24.88;99799.12;1738342;82;21529;-43
2022/06/04 12:28:59;;;;;;;1.87;1.37;;;;;;;30.58;26.25;99792.44;1738561;82;20993;-43